sensor_id;sensor_type;location;lat;lon;timestamp;pressure;altitude;pressure_sealevel;temperature;humidity
18988;BME280;5494;51.796;10.952;2022-09-21T00:01:37;99859.91;;;8.60;100.00
18988;BME280;5494;51.796;10.952;2022-09-21T00:04:06;99862.28;;;8.67;100.00
18988;BME280;5494;51.796;10.952;2022-09-21T00:06:36;99856.22;;;8.68;100.00
18988;BME280;5494;51.796;10.952;2022-09-21T00:09:05;99858.03;;;8.65;100.00
18988;BME280;5494;51.796;10.952;2022-09-21T00:11:35;99855.28;;;8.71;100.00
18988;BME280;5494;51.796;10.952;2022-09-21T00:14:11;99858.19;;;8.90;100.00
18988;BME280;5494;51.796;10.952;2022-09-21T00:16:41;99859.06;;;8.89;100.00
18988;BME280;5494;51.796;10.952;2022-09-21T00:19:11;99865.84;;;8.93;100.00
18988;BME280;5494;51.796;10.952;2022-09-21T00:21:39;99863.66;;;9.08;99.96
18988;BME280;5494;51.796;10.952;2022-09-21T00:24:08;99863.84;;;9.30;99.01
18988;BME280;5494;51.796;10.952;2022-09-21T00:26:37;99874.97;;;9.34;98.21
18988;BME280;5494;51.796;10.952;2022-09-21T00:29:07;99872.34;;;9.35;98.32
18988;BME280;5494;51.796;10.952;2022-09-21T00:31:35;99877.13;;;9.20;98.79
18988;BME280;5494;51.796;10.952;2022-09-21T00:34:04;99876.66;;;9.07;99.72
18988;BME280;5494;51.796;10.952;2022-09-21T00:36:34;99887.16;;;9.04;100.00
18988;BME280;5494;51.796;10.952;2022-09-21T00:39:02;99882.75;;;9.06;100.00
18988;BME280;5494;51.796;10.952;2022-09-21T00:41:33;99880.34;;;9.00;100.00
18988;BME280;5494;51.796;10.952;2022-09-21T00:44:31;99889.81;;;9.01;100.00
18988;BME280;5494;51.796;10.952;2022-09-21T00:47:06;99889.88;;;8.99;100.00
18988;BME280;5494;51.796;10.952;2022-09-21T00:49:39;99889.00;;;8.99;100.00
18988;BME280;5494;51.796;10.952;2022-09-21T00:52:10;99885.72;;;8.94;100.00
18988;BME280;5494;51.796;10.952;2022-09-21T00:54:47;99886.50;;;8.97;100.00
18988;BME280;5494;51.796;10.952;2022-09-21T00:57:20;99879.63;;;8.95;100.00
18988;BME280;5494;51.796;10.952;2022-09-21T00:59:54;99888.94;;;9.02;100.00
18988;BME280;5494;51.796;10.952;2022-09-21T01:02:24;99888.78;;;9.06;100.00
18988;BME280;5494;51.796;10.952;2022-09-21T01:04:54;99888.03;;;9.03;100.00
18988;BME280;5494;51.796;10.952;2022-09-21T01:07:26;99885.25;;;9.09;100.00
18988;BME280;5494;51.796;10.952;2022-09-21T01:10:02;99891.25;;;9.11;100.00
18988;BME280;5494;51.796;10.952;2022-09-21T01:12:58;99892.97;;;9.12;100.00
18988;BME280;5494;51.796;10.952;2022-09-21T01:15:37;99895.50;;;9.14;100.00
18988;BME280;5494;51.796;10.952;2022-09-21T01:18:16;99900.91;;;9.06;100.00
18988;BME280;5494;51.796;10.952;2022-09-21T01:21:16;99900.00;;;9.07;100.00
18988;BME280;5494;51.796;10.952;2022-09-21T01:27:33;99895.81;;;9.03;100.00
18988;BME280;5494;51.796;10.952;2022-09-21T01:30:11;99897.41;;;9.07;100.00
18988;BME280;5494;51.796;10.952;2022-09-21T01:32:45;99898.00;;;9.17;100.00
18988;BME280;5494;51.796;10.952;2022-09-21T01:35:21;99903.00;;;9.23;100.00
18988;BME280;5494;51.796;10.952;2022-09-21T01:37:56;99907.44;;;9.19;100.00
18988;BME280;5494;51.796;10.952;2022-09-21T01:40:32;99911.78;;;9.19;100.00
18988;BME280;5494;51.796;10.952;2022-09-21T01:43:05;99911.13;;;9.12;100.00
18988;BME280;5494;51.796;10.952;2022-09-21T01:45:43;99905.00;;;9.13;100.00
18988;BME280;5494;51.796;10.952;2022-09-21T01:48:16;99912.22;;;9.03;100.00
18988;BME280;5494;51.796;10.952;2022-09-21T01:50:52;99905.16;;;9.08;100.00
18988;BME280;5494;51.796;10.952;2022-09-21T01:53:31;99904.84;;;9.19;100.00
18988;BME280;5494;51.796;10.952;2022-09-21T01:56:08;99902.50;;;9.12;100.00
18988;BME280;5494;51.796;10.952;2022-09-21T01:58:44;99906.16;;;9.04;100.00
18988;BME280;5494;51.796;10.952;2022-09-21T02:01:20;99909.75;;;8.99;100.00
18988;BME280;5494;51.796;10.952;2022-09-21T02:03:53;99912.63;;;8.90;100.00
18988;BME280;5494;51.796;10.952;2022-09-21T02:06:25;99907.50;;;8.88;100.00
18988;BME280;5494;51.796;10.952;2022-09-21T02:08:55;99911.75;;;8.91;100.00
18988;BME280;5494;51.796;10.952;2022-09-21T02:11:25;99919.53;;;8.91;100.00
18988;BME280;5494;51.796;10.952;2022-09-21T02:13:54;99914.13;;;8.98;100.00
18988;BME280;5494;51.796;10.952;2022-09-21T02:16:34;99912.88;;;8.81;100.00
18988;BME280;5494;51.796;10.952;2022-09-21T02:19:16;99915.59;;;8.78;100.00
18988;BME280;5494;51.796;10.952;2022-09-21T02:22:00;99913.28;;;8.67;100.00
18988;BME280;5494;51.796;10.952;2022-09-21T02:24:39;99917.09;;;8.54;100.00
18988;BME280;5494;51.796;10.952;2022-09-21T02:27:22;99908.66;;;8.47;100.00
18988;BME280;5494;51.796;10.952;2022-09-21T02:30:03;99906.25;;;8.40;100.00
18988;BME280;5494;51.796;10.952;2022-09-21T02:32:44;99908.19;;;8.32;100.00
18988;BME280;5494;51.796;10.952;2022-09-21T02:35:30;99912.38;;;8.37;100.00
18988;BME280;5494;51.796;10.952;2022-09-21T02:38:08;99913.31;;;8.35;100.00
18988;BME280;5494;51.796;10.952;2022-09-21T02:40:44;99907.34;;;8.31;100.00
18988;BME280;5494;51.796;10.952;2022-09-21T02:43:22;99909.06;;;8.32;100.00
18988;BME280;5494;51.796;10.952;2022-09-21T02:46:00;99912.09;;;8.48;100.00
18988;BME280;5494;51.796;10.952;2022-09-21T02:48:37;99909.63;;;8.43;100.00
18988;BME280;5494;51.796;10.952;2022-09-21T02:51:12;99902.66;;;8.45;100.00
18988;BME280;5494;51.796;10.952;2022-09-21T02:53:43;99907.78;;;8.47;100.00
18988;BME280;5494;51.796;10.952;2022-09-21T02:56:14;99901.81;;;8.45;100.00
18988;BME280;5494;51.796;10.952;2022-09-21T02:58:49;99905.91;;;8.52;100.00
18988;BME280;5494;51.796;10.952;2022-09-21T03:01:21;99908.22;;;8.62;100.00
18988;BME280;5494;51.796;10.952;2022-09-21T03:03:52;99907.56;;;8.56;100.00
18988;BME280;5494;51.796;10.952;2022-09-21T03:06:21;99913.25;;;8.68;100.00
18988;BME280;5494;51.796;10.952;2022-09-21T03:08:49;99906.38;;;8.66;100.00
18988;BME280;5494;51.796;10.952;2022-09-21T03:11:18;99911.72;;;8.61;100.00
18988;BME280;5494;51.796;10.952;2022-09-21T03:13:47;99914.66;;;8.49;100.00
18988;BME280;5494;51.796;10.952;2022-09-21T03:16:16;99911.06;;;8.53;100.00
18988;BME280;5494;51.796;10.952;2022-09-21T03:18:44;99920.41;;;8.59;100.00
18988;BME280;5494;51.796;10.952;2022-09-21T03:21:14;99912.94;;;8.48;100.00
18988;BME280;5494;51.796;10.952;2022-09-21T03:23:42;99919.56;;;8.58;100.00
18988;BME280;5494;51.796;10.952;2022-09-21T03:26:11;99918.09;;;8.79;100.00
18988;BME280;5494;51.796;10.952;2022-09-21T03:28:39;99921.84;;;8.71;100.00
18988;BME280;5494;51.796;10.952;2022-09-21T03:31:07;99918.28;;;8.73;100.00
18988;BME280;5494;51.796;10.952;2022-09-21T03:33:36;99929.69;;;8.67;100.00
18988;BME280;5494;51.796;10.952;2022-09-21T03:36:05;99922.31;;;8.52;100.00
18988;BME280;5494;51.796;10.952;2022-09-21T03:38:34;99920.13;;;8.37;100.00
18988;BME280;5494;51.796;10.952;2022-09-21T03:41:04;99920.38;;;8.28;100.00
18988;BME280;5494;51.796;10.952;2022-09-21T03:43:33;99925.75;;;8.20;100.00
18988;BME280;5494;51.796;10.952;2022-09-21T03:46:01;99916.50;;;8.10;100.00
18988;BME280;5494;51.796;10.952;2022-09-21T03:48:30;99926.25;;;8.01;100.00
18988;BME280;5494;51.796;10.952;2022-09-21T03:50:59;99917.72;;;7.96;100.00
18988;BME280;5494;51.796;10.952;2022-09-21T03:53:27;99928.84;;;8.01;100.00
18988;BME280;5494;51.796;10.952;2022-09-21T03:55:57;99928.03;;;7.99;100.00
18988;BME280;5494;51.796;10.952;2022-09-21T03:58:26;99927.31;;;7.92;100.00
18988;BME280;5494;51.796;10.952;2022-09-21T04:01:00;99923.16;;;7.86;100.00
18988;BME280;5494;51.796;10.952;2022-09-21T04:05:57;99932.75;;;7.81;100.00
18988;BME280;5494;51.796;10.952;2022-09-21T04:08:26;99931.94;;;7.79;100.00
18988;BME280;5494;51.796;10.952;2022-09-21T04:10:55;99931.09;;;7.79;100.00
18988;BME280;5494;51.796;10.952;2022-09-21T04:13:24;99930.47;;;7.69;100.00
18988;BME280;5494;51.796;10.952;2022-09-21T04:15:53;99935.81;;;7.62;100.00
18988;BME280;5494;51.796;10.952;2022-09-21T04:18:22;99933.31;;;7.59;100.00
18988;BME280;5494;51.796;10.952;2022-09-21T04:20:50;99940.34;;;7.54;100.00
18988;BME280;5494;51.796;10.952;2022-09-21T04:23:19;99933.47;;;7.53;100.00
18988;BME280;5494;51.796;10.952;2022-09-21T04:25:49;99931.78;;;7.50;100.00
18988;BME280;5494;51.796;10.952;2022-09-21T04:28:18;99937.78;;;7.52;100.00
18988;BME280;5494;51.796;10.952;2022-09-21T04:30:51;99945.53;;;7.52;100.00
18988;BME280;5494;51.796;10.952;2022-09-21T04:33:20;99946.56;;;7.45;100.00
18988;BME280;5494;51.796;10.952;2022-09-21T04:35:54;99945.75;;;7.43;100.00
18988;BME280;5494;51.796;10.952;2022-09-21T04:38:22;99942.44;;;7.36;100.00
18988;BME280;5494;51.796;10.952;2022-09-21T04:40:55;99945.91;;;7.35;100.00
18988;BME280;5494;51.796;10.952;2022-09-21T04:43:24;99948.59;;;7.31;100.00
18988;BME280;5494;51.796;10.952;2022-09-21T04:45:54;99949.59;;;7.25;100.00
18988;BME280;5494;51.796;10.952;2022-09-21T04:48:23;99947.78;;;7.29;100.00
18988;BME280;5494;51.796;10.952;2022-09-21T04:50:52;99949.50;;;7.28;100.00
18988;BME280;5494;51.796;10.952;2022-09-21T04:53:20;99956.50;;;7.25;100.00
18988;BME280;5494;51.796;10.952;2022-09-21T04:55:48;99947.03;;;7.24;100.00
18988;BME280;5494;51.796;10.952;2022-09-21T04:58:17;99960.66;;;7.32;100.00
18988;BME280;5494;51.796;10.952;2022-09-21T05:00:51;99952.94;;;7.29;100.00
18988;BME280;5494;51.796;10.952;2022-09-21T05:03:23;99954.66;;;7.30;100.00
18988;BME280;5494;51.796;10.952;2022-09-21T05:05:54;99962.44;;;7.28;100.00
18988;BME280;5494;51.796;10.952;2022-09-21T05:08:25;99964.94;;;7.33;100.00
18988;BME280;5494;51.796;10.952;2022-09-21T05:11:10;99963.25;;;7.32;100.00
18988;BME280;5494;51.796;10.952;2022-09-21T05:13:39;99960.50;;;7.38;100.00
18988;BME280;5494;51.796;10.952;2022-09-21T05:16:08;99962.09;;;7.45;100.00
18988;BME280;5494;51.796;10.952;2022-09-21T05:18:38;99975.56;;;7.59;100.00
18988;BME280;5494;51.796;10.952;2022-09-21T05:21:08;99973.38;;;7.79;100.00
18988;BME280;5494;51.796;10.952;2022-09-21T05:23:38;99971.88;;;8.05;100.00
18988;BME280;5494;51.796;10.952;2022-09-21T05:26:07;99968.56;;;8.35;100.00
18988;BME280;5494;51.796;10.952;2022-09-21T05:28:36;99972.94;;;8.65;100.00
18988;BME280;5494;51.796;10.952;2022-09-21T05:31:26;99975.53;;;8.96;100.00
18988;BME280;5494;51.796;10.952;2022-09-21T05:34:12;99984.09;;;9.29;100.00
18988;BME280;5494;51.796;10.952;2022-09-21T05:36:56;99974.59;;;9.58;98.14
18988;BME280;5494;51.796;10.952;2022-09-21T05:39:27;99982.72;;;9.75;96.58
18988;BME280;5494;51.796;10.952;2022-09-21T05:41:56;99983.69;;;9.99;95.96
18988;BME280;5494;51.796;10.952;2022-09-21T05:44:25;99985.44;;;10.24;95.08
18988;BME280;5494;51.796;10.952;2022-09-21T05:47:01;99992.06;;;10.35;92.80
18988;BME280;5494;51.796;10.952;2022-09-21T05:49:48;99993.81;;;10.59;93.00
18988;BME280;5494;51.796;10.952;2022-09-21T05:52:33;99990.81;;;10.94;90.24
18988;BME280;5494;51.796;10.952;2022-09-21T05:55:20;99993.22;;;11.24;88.44
18988;BME280;5494;51.796;10.952;2022-09-21T05:58:00;99985.31;;;11.49;85.77
18988;BME280;5494;51.796;10.952;2022-09-21T06:00:42;99994.16;;;11.68;84.82
18988;BME280;5494;51.796;10.952;2022-09-21T06:03:27;99992.50;;;11.89;84.65
18988;BME280;5494;51.796;10.952;2022-09-21T06:05:58;99989.38;;;12.22;82.36
18988;BME280;5494;51.796;10.952;2022-09-21T06:08:27;99988.81;;;12.56;79.87
18988;BME280;5494;51.796;10.952;2022-09-21T06:10:55;99989.69;;;12.76;79.21
18988;BME280;5494;51.796;10.952;2022-09-21T06:13:25;99993.34;;;12.92;78.73
18988;BME280;5494;51.796;10.952;2022-09-21T06:15:53;99991.88;;;13.05;78.15
18988;BME280;5494;51.796;10.952;2022-09-21T06:18:22;99982.22;;;13.27;77.00
18988;BME280;5494;51.796;10.952;2022-09-21T06:20:51;99990.66;;;13.70;75.40
18988;BME280;5494;51.796;10.952;2022-09-21T06:23:20;99990.47;;;14.10;73.46
18988;BME280;5494;51.796;10.952;2022-09-21T06:25:50;99991.75;;;14.38;72.65
18988;BME280;5494;51.796;10.952;2022-09-21T06:28:25;99994.22;;;14.91;70.59
18988;BME280;5494;51.796;10.952;2022-09-21T06:30:55;99994.22;;;15.24;69.41
18988;BME280;5494;51.796;10.952;2022-09-21T06:33:25;99993.66;;;15.50;68.43
18988;BME280;5494;51.796;10.952;2022-09-21T06:35:55;99998.34;;;15.76;67.65
18988;BME280;5494;51.796;10.952;2022-09-21T06:38:26;99997.03;;;16.15;66.15
18988;BME280;5494;51.796;10.952;2022-09-21T06:41:00;99991.94;;;16.58;63.81
18988;BME280;5494;51.796;10.952;2022-09-21T06:43:29;99993.09;;;16.82;62.50
18988;BME280;5494;51.796;10.952;2022-09-21T06:45:59;99989.38;;;16.86;62.71
18988;BME280;5494;51.796;10.952;2022-09-21T06:48:33;99993.47;;;16.76;63.71
18988;BME280;5494;51.796;10.952;2022-09-21T06:51:04;99991.97;;;16.72;64.21
18988;BME280;5494;51.796;10.952;2022-09-21T06:53:34;99991.81;;;17.03;63.02
18988;BME280;5494;51.796;10.952;2022-09-21T06:56:05;99997.88;;;17.60;60.81
18988;BME280;5494;51.796;10.952;2022-09-21T06:58:35;99992.81;;;17.98;59.51
18988;BME280;5494;51.796;10.952;2022-09-21T07:01:06;99992.56;;;18.55;56.63
18988;BME280;5494;51.796;10.952;2022-09-21T07:03:35;99993.66;;;18.91;55.97
18988;BME280;5494;51.796;10.952;2022-09-21T07:06:05;100000.00;;;19.01;55.59
18988;BME280;5494;51.796;10.952;2022-09-21T07:08:36;99999.03;;;19.02;55.62
18988;BME280;5494;51.796;10.952;2022-09-21T07:11:25;99999.97;;;19.26;54.16
18988;BME280;5494;51.796;10.952;2022-09-21T07:13:54;100003.09;;;19.44;53.70
18988;BME280;5494;51.796;10.952;2022-09-21T07:16:24;100004.19;;;19.54;53.12
18988;BME280;5494;51.796;10.952;2022-09-21T07:18:54;100001.00;;;19.61;52.22
18988;BME280;5494;51.796;10.952;2022-09-21T07:21:24;100009.94;;;19.72;51.22
18988;BME280;5494;51.796;10.952;2022-09-21T07:23:54;100005.41;;;19.74;51.71
18988;BME280;5494;51.796;10.952;2022-09-21T07:26:22;100005.91;;;19.79;50.49
18988;BME280;5494;51.796;10.952;2022-09-21T07:28:51;100014.06;;;19.76;51.05
18988;BME280;5494;51.796;10.952;2022-09-21T07:31:19;100013.69;;;20.17;49.71
18988;BME280;5494;51.796;10.952;2022-09-21T07:33:48;100015.09;;;20.33;48.75
18988;BME280;5494;51.796;10.952;2022-09-21T07:36:16;100010.41;;;20.13;50.16
18988;BME280;5494;51.796;10.952;2022-09-21T07:38:45;100014.03;;;20.36;50.30
18988;BME280;5494;51.796;10.952;2022-09-21T07:41:15;100016.78;;;20.69;49.95
18988;BME280;5494;51.796;10.952;2022-09-21T07:43:43;100012.28;;;20.94;49.48
18988;BME280;5494;51.796;10.952;2022-09-21T07:46:13;100013.69;;;20.87;49.93
18988;BME280;5494;51.796;10.952;2022-09-21T07:48:42;100014.72;;;21.30;48.43
18988;BME280;5494;51.796;10.952;2022-09-21T07:51:15;100020.75;;;20.75;48.77
18988;BME280;5494;51.796;10.952;2022-09-21T07:53:43;100008.19;;;21.12;48.25
18988;BME280;5494;51.796;10.952;2022-09-21T07:56:16;100018.81;;;21.23;46.97
18988;BME280;5494;51.796;10.952;2022-09-21T07:58:45;100012.06;;;21.30;45.90
18988;BME280;5494;51.796;10.952;2022-09-21T08:01:33;100013.28;;;21.37;46.48
18988;BME280;5494;51.796;10.952;2022-09-21T08:04:03;100015.56;;;21.19;45.74
18988;BME280;5494;51.796;10.952;2022-09-21T08:06:33;100018.31;;;21.18;48.78
18988;BME280;5494;51.796;10.952;2022-09-21T08:09:03;100024.69;;;21.60;45.75
18988;BME280;5494;51.796;10.952;2022-09-21T08:11:34;100021.09;;;21.39;45.96
18988;BME280;5494;51.796;10.952;2022-09-21T08:14:03;100024.38;;;21.42;45.87
18988;BME280;5494;51.796;10.952;2022-09-21T08:16:32;100025.53;;;21.38;45.97
18988;BME280;5494;51.796;10.952;2022-09-21T08:19:03;100027.44;;;21.14;46.75
18988;BME280;5494;51.796;10.952;2022-09-21T08:21:31;100030.34;;;20.65;48.70
18988;BME280;5494;51.796;10.952;2022-09-21T08:24:02;100030.94;;;20.10;49.08
18988;BME280;5494;51.796;10.952;2022-09-21T08:26:30;100023.44;;;20.03;50.68
18988;BME280;5494;51.796;10.952;2022-09-21T08:29:02;100027.03;;;20.85;47.66
18988;BME280;5494;51.796;10.952;2022-09-21T08:31:31;100028.31;;;21.37;47.38
18988;BME280;5494;51.796;10.952;2022-09-21T08:33:59;100018.75;;;21.79;46.70
18988;BME280;5494;51.796;10.952;2022-09-21T08:36:28;100023.44;;;22.09;45.26
18988;BME280;5494;51.796;10.952;2022-09-21T08:38:57;100027.06;;;21.96;45.09
18988;BME280;5494;51.796;10.952;2022-09-21T08:41:47;100022.13;;;21.81;45.30
18988;BME280;5494;51.796;10.952;2022-09-21T08:44:24;100024.72;;;21.49;46.58
18988;BME280;5494;51.796;10.952;2022-09-21T08:47:03;100019.22;;;21.95;45.15
18988;BME280;5494;51.796;10.952;2022-09-21T08:49:37;100022.91;;;22.15;44.35
18988;BME280;5494;51.796;10.952;2022-09-21T08:52:13;100025.88;;;21.78;44.91
18988;BME280;5494;51.796;10.952;2022-09-21T08:54:50;100021.47;;;22.22;43.90
18988;BME280;5494;51.796;10.952;2022-09-21T08:57:28;100023.97;;;22.55;43.51
18988;BME280;5494;51.796;10.952;2022-09-21T09:00:00;100034.75;;;22.11;44.19
18988;BME280;5494;51.796;10.952;2022-09-21T09:03:01;100034.34;;;22.26;43.54
18988;BME280;5494;51.796;10.952;2022-09-21T09:05:47;100026.22;;;22.39;43.16
18988;BME280;5494;51.796;10.952;2022-09-21T09:08:50;100030.50;;;22.72;42.26
18988;BME280;5494;51.796;10.952;2022-09-21T09:11:39;100024.94;;;22.96;41.91
18988;BME280;5494;51.796;10.952;2022-09-21T09:14:43;100032.53;;;22.48;43.37
18988;BME280;5494;51.796;10.952;2022-09-21T09:17:35;100031.94;;;21.47;44.16
18988;BME280;5494;51.796;10.952;2022-09-21T09:20:13;100027.13;;;21.30;46.21
18988;BME280;5494;51.796;10.952;2022-09-21T09:22:49;100034.09;;;20.38;47.53
18988;BME280;5494;51.796;10.952;2022-09-21T09:25:22;100035.72;;;20.98;45.98
18988;BME280;5494;51.796;10.952;2022-09-21T09:27:54;100033.72;;;21.57;43.09
18988;BME280;5494;51.796;10.952;2022-09-21T09:30:32;100032.63;;;20.34;47.16
18988;BME280;5494;51.796;10.952;2022-09-21T09:33:14;100032.94;;;20.06;48.31
18988;BME280;5494;51.796;10.952;2022-09-21T09:35:48;100031.03;;;20.32;48.54
18988;BME280;5494;51.796;10.952;2022-09-21T09:38:25;100034.97;;;20.85;45.62
18988;BME280;5494;51.796;10.952;2022-09-21T09:41:21;100028.50;;;22.00;43.62
18988;BME280;5494;51.796;10.952;2022-09-21T09:44:10;100029.22;;;20.56;46.67
18988;BME280;5494;51.796;10.952;2022-09-21T09:46:56;100028.94;;;20.83;48.05
18988;BME280;5494;51.796;10.952;2022-09-21T09:49:39;100041.66;;;21.69;45.01
18988;BME280;5494;51.796;10.952;2022-09-21T09:52:14;100033.28;;;22.07;42.66
18988;BME280;5494;51.796;10.952;2022-09-21T09:54:44;100028.06;;;22.59;41.83
18988;BME280;5494;51.796;10.952;2022-09-21T09:57:12;100025.72;;;22.66;42.93
18988;BME280;5494;51.796;10.952;2022-09-21T09:59:47;100031.19;;;21.67;43.31
18988;BME280;5494;51.796;10.952;2022-09-21T10:02:23;100033.84;;;21.34;45.76
18988;BME280;5494;51.796;10.952;2022-09-21T10:04:59;100033.84;;;21.67;45.18
18988;BME280;5494;51.796;10.952;2022-09-21T10:07:37;100038.06;;;21.70;44.26
18988;BME280;5494;51.796;10.952;2022-09-21T10:10:25;100033.72;;;21.69;43.01
18988;BME280;5494;51.796;10.952;2022-09-21T10:13:10;100037.69;;;21.41;42.32
18988;BME280;5494;51.796;10.952;2022-09-21T10:15:44;100032.78;;;21.36;44.67
18988;BME280;5494;51.796;10.952;2022-09-21T10:18:20;100039.19;;;20.99;44.71
18988;BME280;5494;51.796;10.952;2022-09-21T10:20:58;100034.78;;;21.66;44.31
18988;BME280;5494;51.796;10.952;2022-09-21T10:23:29;100036.81;;;21.07;43.47
18988;BME280;5494;51.796;10.952;2022-09-21T10:26:04;100026.41;;;21.28;43.26
18988;BME280;5494;51.796;10.952;2022-09-21T10:28:35;100025.53;;;21.38;42.32
18988;BME280;5494;51.796;10.952;2022-09-21T10:31:16;100028.44;;;20.78;44.99
18988;BME280;5494;51.796;10.952;2022-09-21T10:34:06;100021.84;;;20.37;47.89
18988;BME280;5494;51.796;10.952;2022-09-21T10:36:40;100032.03;;;20.66;44.40
18988;BME280;5494;51.796;10.952;2022-09-21T10:39:26;100024.31;;;20.52;44.53
18988;BME280;5494;51.796;10.952;2022-09-21T10:42:02;100019.88;;;20.63;45.43
18988;BME280;5494;51.796;10.952;2022-09-21T10:44:39;100027.88;;;20.86;45.26
18988;BME280;5494;51.796;10.952;2022-09-21T10:47:31;100024.84;;;20.33;46.30
18988;BME280;5494;51.796;10.952;2022-09-21T10:50:18;100022.59;;;18.53;50.83
18988;BME280;5494;51.796;10.952;2022-09-21T10:52:55;100027.41;;;17.92;51.56
18988;BME280;5494;51.796;10.952;2022-09-21T10:55:27;100026.03;;;16.73;54.98
18988;BME280;5494;51.796;10.952;2022-09-21T10:57:57;100028.38;;;16.32;55.20
18988;BME280;5494;51.796;10.952;2022-09-21T11:00:32;100026.16;;;16.86;54.46
18988;BME280;5494;51.796;10.952;2022-09-21T11:03:41;100020.63;;;16.90;52.91
18988;BME280;5494;51.796;10.952;2022-09-21T11:06:17;100018.28;;;17.00;53.50
18988;BME280;5494;51.796;10.952;2022-09-21T11:08:55;100009.84;;;17.23;52.08
18988;BME280;5494;51.796;10.952;2022-09-21T11:11:40;100011.34;;;18.24;51.88
18988;BME280;5494;51.796;10.952;2022-09-21T11:14:25;100010.13;;;19.07;49.14
18988;BME280;5494;51.796;10.952;2022-09-21T11:17:00;100008.53;;;19.17;47.15
18988;BME280;5494;51.796;10.952;2022-09-21T11:19:37;100012.13;;;19.28;46.32
18988;BME280;5494;51.796;10.952;2022-09-21T11:22:17;100015.06;;;19.11;46.52
18988;BME280;5494;51.796;10.952;2022-09-21T11:25:00;100007.22;;;18.20;48.33
18988;BME280;5494;51.796;10.952;2022-09-21T11:27:37;100017.13;;;17.75;50.61
18988;BME280;5494;51.796;10.952;2022-09-21T11:30:11;100012.16;;;18.12;50.14
18988;BME280;5494;51.796;10.952;2022-09-21T11:33:02;100013.19;;;18.48;49.80
18988;BME280;5494;51.796;10.952;2022-09-21T11:35:55;100006.88;;;18.51;50.15
18988;BME280;5494;51.796;10.952;2022-09-21T11:38:42;100014.66;;;18.67;47.96
18988;BME280;5494;51.796;10.952;2022-09-21T11:41:36;100008.78;;;17.68;49.69
18988;BME280;5494;51.796;10.952;2022-09-21T11:44:31;100002.97;;;17.49;49.59
18988;BME280;5494;51.796;10.952;2022-09-21T11:47:13;100011.16;;;17.30;51.76
18988;BME280;5494;51.796;10.952;2022-09-21T11:50:10;100005.69;;;17.48;52.14
18988;BME280;5494;51.796;10.952;2022-09-21T11:53:20;100005.06;;;17.85;50.72
18988;BME280;5494;51.796;10.952;2022-09-21T11:56:21;99999.31;;;17.23;52.80
18988;BME280;5494;51.796;10.952;2022-09-21T11:59:11;100005.34;;;17.25;53.06
18988;BME280;5494;51.796;10.952;2022-09-21T12:02:01;99996.50;;;17.55;51.93
18988;BME280;5494;51.796;10.952;2022-09-21T12:04:42;100003.06;;;17.76;51.06
18988;BME280;5494;51.796;10.952;2022-09-21T12:07:35;99992.84;;;17.84;50.35
18988;BME280;5494;51.796;10.952;2022-09-21T12:10:35;100000.16;;;17.93;50.18
18988;BME280;5494;51.796;10.952;2022-09-21T12:13:18;99989.66;;;17.93;50.10
18988;BME280;5494;51.796;10.952;2022-09-21T12:15:57;99981.53;;;17.84;50.63
18988;BME280;5494;51.796;10.952;2022-09-21T12:18:37;99995.66;;;17.26;49.09
18988;BME280;5494;51.796;10.952;2022-09-21T12:21:18;99986.94;;;17.40;50.21
18988;BME280;5494;51.796;10.952;2022-09-21T12:23:53;99983.38;;;17.12;51.23
18988;BME280;5494;51.796;10.952;2022-09-21T12:26:29;99985.25;;;17.24;52.81
18988;BME280;5494;51.796;10.952;2022-09-21T12:29:04;99984.13;;;17.00;53.89
18988;BME280;5494;51.796;10.952;2022-09-21T12:31:40;99985.53;;;17.20;53.20
18988;BME280;5494;51.796;10.952;2022-09-21T12:34:15;99983.16;;;17.44;52.60
18988;BME280;5494;51.796;10.952;2022-09-21T12:36:54;99973.97;;;17.37;53.21
18988;BME280;5494;51.796;10.952;2022-09-21T12:39:31;99984.59;;;17.07;52.13
18988;BME280;5494;51.796;10.952;2022-09-21T12:42:17;99970.78;;;17.17;51.41
18988;BME280;5494;51.796;10.952;2022-09-21T12:44:54;99975.66;;;17.38;51.54
18988;BME280;5494;51.796;10.952;2022-09-21T12:47:45;99978.34;;;17.64;48.24
18988;BME280;5494;51.796;10.952;2022-09-21T12:50:21;99975.47;;;17.41;49.29
18988;BME280;5494;51.796;10.952;2022-09-21T12:52:55;99976.19;;;17.57;48.10
18988;BME280;5494;51.796;10.952;2022-09-21T12:55:41;99962.09;;;17.58;47.99
18988;BME280;5494;51.796;10.952;2022-09-21T12:58:29;99973.63;;;17.84;48.25
18988;BME280;5494;51.796;10.952;2022-09-21T13:01:22;99972.25;;;17.50;45.71
18988;BME280;5494;51.796;10.952;2022-09-21T13:04:10;99969.31;;;17.13;50.55
18988;BME280;5494;51.796;10.952;2022-09-21T13:07:19;99964.00;;;17.56;52.23
18988;BME280;5494;51.796;10.952;2022-09-21T13:09:51;99965.75;;;17.00;52.00
18988;BME280;5494;51.796;10.952;2022-09-21T13:12:26;99962.34;;;17.26;50.67
18988;BME280;5494;51.796;10.952;2022-09-21T13:15:11;99962.19;;;17.70;50.79
18988;BME280;5494;51.796;10.952;2022-09-21T13:17:41;99953.91;;;17.21;49.91
18988;BME280;5494;51.796;10.952;2022-09-21T13:20:17;99958.38;;;17.62;46.41
18988;BME280;5494;51.796;10.952;2022-09-21T13:22:47;99954.06;;;17.47;47.58
18988;BME280;5494;51.796;10.952;2022-09-21T13:25:23;99958.09;;;17.38;49.11
18988;BME280;5494;51.796;10.952;2022-09-21T13:27:58;99947.75;;;17.90;48.59
18988;BME280;5494;51.796;10.952;2022-09-21T13:30:37;99951.94;;;18.20;47.80
18988;BME280;5494;51.796;10.952;2022-09-21T13:33:36;99954.56;;;18.20;45.90
18988;BME280;5494;51.796;10.952;2022-09-21T13:36:30;99953.88;;;17.91;47.08
18988;BME280;5494;51.796;10.952;2022-09-21T13:39:14;99948.69;;;18.29;47.56
18988;BME280;5494;51.796;10.952;2022-09-21T13:41:44;99944.22;;;18.56;47.77
18988;BME280;5494;51.796;10.952;2022-09-21T13:44:42;99940.53;;;18.97;46.40
18988;BME280;5494;51.796;10.952;2022-09-21T13:47:12;99935.69;;;18.91;46.21
18988;BME280;5494;51.796;10.952;2022-09-21T13:49:50;99941.59;;;19.07;46.88